Time;durP1;ratioP1;P1;durP2;ratioP2;P2;SDS_P1;SDS_P2;PMS_P1;PMS_P2;Temp;Humidity;BMP_temperature;BMP_pressure;BME280_temperature;BME280_humidity;BME280_pressure;Samples;Min_cycle;Max_cycle;Signal;HPM_P1;HPM_P2
2022/12/16 00:00:29;;;;;;;29.07;17.63;;;2.00;99.90;;;;;;5053329;28;20237;-63
2022/12/16 00:03:00;;;;;;;25.10;16.40;;;2.00;99.90;;;;;;5053778;28;20225;-63
2022/12/16 00:05:27;;;;;;;25.63;16.93;;;2.00;99.90;;;;;;5053998;28;20216;-64
2022/12/16 00:07:54;;;;;;;26.20;16.90;;;1.80;99.90;;;;;;5053635;28;20229;-63
2022/12/16 00:10:20;;;;;;;25.87;16.13;;;1.70;99.90;;;;;;5050997;28;20213;-64
2022/12/16 00:12:47;;;;;;;25.53;16.33;;;1.70;99.90;;;;;;5070588;28;20205;-67
2022/12/16 00:15:14;;;;;;;24.67;16.93;;;1.50;99.90;;;;;;5072701;28;20525;-68
2022/12/16 00:17:41;;;;;;;24.53;16.33;;;1.60;99.90;;;;;;5072605;28;20225;-65
2022/12/16 00:20:10;;;;;;;27.37;17.13;;;1.70;99.90;;;;;;5072197;28;20212;-65
2022/12/16 00:22:37;;;;;;;25.80;16.07;;;1.70;99.90;;;;;;5071755;28;20208;-68
2022/12/16 00:25:04;;;;;;;24.77;16.73;;;1.70;99.90;;;;;;5073069;28;20205;-61
2022/12/16 00:27:31;;;;;;;24.73;16.50;;;1.60;99.90;;;;;;5073136;28;20704;-61
2022/12/16 00:29:58;;;;;;;23.30;15.57;;;1.50;99.90;;;;;;5073127;28;20227;-61
2022/12/16 00:32:25;;;;;;;26.60;16.37;;;1.40;99.90;;;;;;5072679;28;20209;-62
2022/12/16 00:34:52;;;;;;;26.23;16.23;;;1.50;99.90;;;;;;5073293;28;20580;-61
2022/12/16 00:37:20;;;;;;;26.67;16.43;;;1.60;99.90;;;;;;5073126;28;20233;-61
2022/12/16 00:39:46;;;;;;;27.17;17.47;;;1.70;99.90;;;;;;5073001;28;20204;-61
2022/12/16 00:42:13;;;;;;;25.93;16.30;;;1.80;99.90;;;;;;5072241;28;20580;-62
2022/12/16 00:44:40;;;;;;;24.13;16.10;;;1.80;99.90;;;;;;5072812;28;20233;-61
2022/12/16 00:47:07;;;;;;;22.40;15.43;;;1.90;99.90;;;;;;5072713;28;20266;-61
2022/12/16 00:49:34;;;;;;;23.97;15.73;;;2.00;99.90;;;;;;5073234;28;20569;-61
2022/12/16 00:52:00;;;;;;;22.90;15.13;;;1.90;99.90;;;;;;5071626;28;20209;-61
2022/12/16 00:54:28;;;;;;;23.70;15.33;;;1.90;99.90;;;;;;5073145;28;20197;-61
2022/12/16 00:56:55;;;;;;;24.50;16.00;;;1.80;99.90;;;;;;5072500;28;20209;-61
2022/12/16 00:59:22;;;;;;;24.33;15.00;;;1.70;99.90;;;;;;5072775;28;20213;-61
2022/12/16 01:01:49;;;;;;;23.70;15.60;;;1.70;99.90;;;;;;5071959;28;20592;-61
2022/12/16 01:04:15;;;;;;;23.23;15.73;;;1.60;99.90;;;;;;5072633;28;20224;-60
2022/12/16 01:06:42;;;;;;;22.90;14.93;;;1.60;99.90;;;;;;5072471;28;20584;-61
2022/12/16 01:09:09;;;;;;;23.10;14.80;;;1.50;99.90;;;;;;5072455;28;20232;-60
2022/12/16 01:11:37;;;;;;;23.03;15.47;;;1.60;99.90;;;;;;5071805;28;20201;-60
2022/12/16 01:14:03;;;;;;;24.23;15.57;;;1.60;99.90;;;;;;5072460;28;20201;-60
2022/12/16 01:16:30;;;;;;;24.77;15.17;;;1.50;99.90;;;;;;5072539;28;20209;-61
2022/12/16 01:18:57;;;;;;;23.37;15.00;;;1.50;99.90;;;;;;5072287;28;20711;-60
2022/12/16 01:21:23;;;;;;;23.17;14.57;;;1.50;99.90;;;;;;5071859;28;20208;-61
2022/12/16 01:23:50;;;;;;;25.77;15.50;;;1.40;99.90;;;;;;5072197;28;20251;-61
2022/12/16 01:26:18;;;;;;;24.00;15.90;;;1.30;99.90;;;;;;5071956;28;20219;-61
2022/12/16 01:28:48;;;;;;;22.07;15.10;;;1.20;99.90;;;;;;5072118;28;20611;-61
2022/12/16 01:31:16;;;;;;;23.80;15.60;;;1.10;99.90;;;;;;5071699;28;20208;-61
2022/12/16 01:33:43;;;;;;;25.73;16.43;;;1.10;99.90;;;;;;5072248;28;20576;-61
2022/12/16 01:36:10;;;;;;;26.03;16.80;;;1.10;99.90;;;;;;5071908;28;20700;-60
2022/12/16 01:38:37;;;;;;;24.13;16.13;;;1.20;99.90;;;;;;5095981;22;20239;-53
2022/12/16 01:41:05;;;;;;;23.80;15.10;;;1.30;99.90;;;;;;5063997;28;20205;-54
2022/12/16 01:43:35;;;;;;;23.90;14.43;;;1.30;99.90;;;;;;5073301;28;20232;-53
2022/12/16 01:46:07;;;;;;;23.20;15.03;;;1.20;99.90;;;;;;5072863;28;20209;-54
2022/12/16 01:48:48;;;;;;;22.87;14.90;;;1.20;99.90;;;;;;5084072;28;20721;-54
2022/12/16 01:51:21;;;;;;;24.83;15.70;;;1.30;99.90;;;;;;5092791;28;20208;-54
2022/12/16 01:53:50;;;;;;;28.13;16.97;;;1.40;99.90;;;;;;5093016;28;20196;-53
2022/12/16 01:56:19;;;;;;;28.10;17.73;;;1.60;99.90;;;;;;5093203;28;20204;-53
2022/12/16 01:58:46;;;;;;;27.87;17.47;;;1.70;99.90;;;;;;5092823;28;20577;-53
2022/12/16 02:01:16;;;;;;;29.17;18.57;;;1.70;99.90;;;;;;5092770;28;20630;-53
2022/12/16 02:03:43;;;;;;;25.30;18.03;;;1.80;99.90;;;;;;5092590;28;20220;-54
2022/12/16 02:06:10;;;;;;;24.67;16.27;;;1.80;99.90;;;;;;5093026;28;20204;-53
2022/12/16 02:08:37;;;;;;;28.43;18.33;;;1.80;99.90;;;;;;5092956;28;20732;-54
2022/12/16 02:11:31;;;;;;;27.13;17.27;;;1.70;99.90;;;;;;5092333;28;20601;-54
2022/12/16 02:14:19;;;;;;;26.33;17.50;;;1.70;99.90;;;;;;5092955;28;20211;-54
2022/12/16 02:16:54;;;;;;;25.70;16.33;;;1.80;99.90;;;;;;5093383;28;20200;-54
2022/12/16 02:19:52;;;;;;;25.30;17.17;;;1.80;99.90;;;;;;5092925;28;20224;-54
2022/12/16 02:22:32;;;;;;;27.73;16.63;;;1.80;99.90;;;;;;5092427;28;20216;-53
2022/12/16 02:25:35;;;;;;;26.57;16.97;;;1.80;99.90;;;;;;5092890;28;20699;-54
2022/12/16 02:28:07;;;;;;;28.40;18.00;;;1.70;99.90;;;;;;5092703;28;20234;-53
2022/12/16 02:30:55;;;;;;;29.17;19.13;;;1.80;99.90;;;;;;5093363;28;20204;-53
2022/12/16 02:33:43;;;;;;;25.77;17.03;;;1.80;99.90;;;;;;5093090;28;20671;-54
2022/12/16 02:36:17;;;;;;;27.10;16.90;;;1.70;99.90;;;;;;5093131;28;20690;-53
2022/12/16 02:38:56;;;;;;;27.63;17.77;;;1.60;99.90;;;;;;5093010;28;20239;-55
2022/12/16 02:41:30;;;;;;;28.80;17.70;;;1.30;99.90;;;;;;5094540;28;20299;-54
2022/12/16 02:44:01;;;;;;;26.07;17.57;;;1.30;99.90;;;;;;5093470;28;20227;-53
2022/12/16 02:46:31;;;;;;;26.03;16.93;;;1.10;99.90;;;;;;5093949;28;20239;-54
2022/12/16 02:49:06;;;;;;;29.97;17.57;;;1.10;99.90;;;;;;5093717;28;20652;-54
2022/12/16 02:51:35;;;;;;;26.80;17.67;;;1.10;99.90;;;;;;5093988;28;20199;-53
2022/12/16 02:54:02;;;;;;;28.17;17.53;;;1.10;99.90;;;;;;5093960;28;20207;-54
2022/12/16 02:56:45;;;;;;;27.43;18.43;;;0.90;99.90;;;;;;5094314;28;20204;-54
2022/12/16 02:59:23;;;;;;;27.67;18.43;;;0.90;99.90;;;;;;5094042;28;20315;-54
2022/12/16 03:01:57;;;;;;;28.40;18.60;;;0.90;99.90;;;;;;5092492;28;20679;-54
2022/12/16 03:04:29;;;;;;;28.23;17.93;;;0.90;99.90;;;;;;5092415;28;20223;-56
2022/12/16 03:06:57;;;;;;;27.13;17.73;;;1.10;99.90;;;;;;5093281;28;20204;-53
2022/12/16 03:09:28;;;;;;;26.03;17.53;;;1.30;99.90;;;;;;5094059;28;20669;-54
2022/12/16 03:11:56;;;;;;;29.33;18.93;;;1.40;99.90;;;;;;5093058;28;20242;-53
2022/12/16 03:14:27;;;;;;;31.93;19.30;;;1.50;99.90;;;;;;5092605;28;20200;-53
2022/12/16 03:16:55;;;;;;;31.27;20.77;;;1.70;99.90;;;;;;5095987;28;20204;-54
2022/12/16 03:19:25;;;;;;;30.07;18.97;;;1.80;99.90;;;;;;5096605;28;20224;-54
2022/12/16 03:21:59;;;;;;;29.23;18.57;;;2.00;99.90;;;;;;5095848;28;20382;-54
2022/12/16 03:24:26;;;;;;;28.63;18.77;;;2.10;99.90;;;;;;5096683;28;20220;-54
2022/12/16 03:27:01;;;;;;;29.70;19.13;;;2.30;99.90;;;;;;5096925;28;20290;-54
2022/12/16 03:29:38;;;;;;;29.67;18.97;;;2.40;99.90;;;;;;5096659;28;20227;-52
2022/12/16 03:32:12;;;;;;;28.33;18.40;;;2.40;99.90;;;;;;5096800;28;20208;-52
2022/12/16 03:34:43;;;;;;;26.83;17.90;;;2.50;99.90;;;;;;5097090;28;20215;-53
2022/12/16 03:37:13;;;;;;;28.90;18.77;;;2.40;99.90;;;;;;5097150;28;20207;-53
2022/12/16 03:39:43;;;;;;;27.50;18.53;;;2.40;99.90;;;;;;5096171;28;20223;-53
2022/12/16 03:42:11;;;;;;;29.17;18.93;;;2.40;99.90;;;;;;5095871;28;20211;-52
2022/12/16 03:44:38;;;;;;;26.90;17.37;;;2.20;99.90;;;;;;5095943;28;20232;-52
2022/12/16 03:47:07;;;;;;;28.20;17.67;;;2.20;99.90;;;;;;5095881;28;20291;-53
2022/12/16 03:49:34;;;;;;;28.07;18.00;;;2.20;99.90;;;;;;5095233;28;20235;-53
2022/12/16 03:52:00;;;;;;;27.43;17.23;;;2.20;99.90;;;;;;5094650;28;20204;-53
2022/12/16 03:54:27;;;;;;;25.90;17.23;;;2.00;99.90;;;;;;5096145;28;20204;-53
2022/12/16 03:56:54;;;;;;;24.93;16.13;;;2.00;99.90;;;;;;5095560;28;20204;-52
2022/12/16 03:59:21;;;;;;;25.10;16.23;;;2.00;99.90;;;;;;5095472;28;20235;-53
2022/12/16 04:01:48;;;;;;;24.67;16.53;;;2.00;99.90;;;;;;5095066;28;20213;-53
2022/12/16 04:04:17;;;;;;;23.30;16.17;;;2.10;99.90;;;;;;5095427;28;20227;-53
2022/12/16 04:06:44;;;;;;;26.83;15.80;;;1.90;99.90;;;;;;5095439;28;20291;-53
2022/12/16 04:09:11;;;;;;;25.10;15.73;;;1.70;99.90;;;;;;5095597;28;20260;-53
2022/12/16 04:25:31;;;;;;;25.53;16.63;;;0.60;99.90;;;;;;5094604;28;20353;-54
2022/12/16 04:27:58;;;;;;;25.17;16.53;;;0.80;99.90;;;;;;5093751;28;20224;-54
2022/12/16 04:30:27;;;;;;;22.87;15.50;;;0.90;99.90;;;;;;5094944;28;20261;-54
